sensor_id;sensor_type;location;lat;lon;timestamp;noise_LAeq;noise_LA_min;noise_LA_max;noise_LA01;noise_LA95
69616;Laerm;56822;52.516;4.708;2023-01-10T00:00:07;36.17;33.36;42.92;;
69616;Laerm;56822;52.516;4.708;2023-01-10T00:00:18;37.69;34.07;46.62;;
69616;Laerm;56822;52.516;4.708;2023-01-10T00:00:28;36.14;32.84;43.00;;
69616;Laerm;56822;52.516;4.708;2023-01-10T00:00:46;35.63;32.72;50.25;;
69616;Laerm;56822;52.516;4.708;2023-01-10T00:00:56;36.97;33.93;46.57;;
69616;Laerm;56822;52.516;4.708;2023-01-10T00:01:07;39.34;31.90;52.38;;
69616;Laerm;56822;52.516;4.708;2023-01-10T00:01:17;36.92;31.73;48.32;;
69616;Laerm;56822;52.516;4.708;2023-01-10T00:01:28;45.20;33.49;58.90;;
69616;Laerm;56822;52.516;4.708;2023-01-10T00:01:38;39.32;33.36;52.75;;
69616;Laerm;56822;52.516;4.708;2023-01-10T00:01:48;36.47;32.28;49.48;;
69616;Laerm;56822;52.516;4.708;2023-01-10T00:01:59;39.31;32.82;50.82;;
69616;Laerm;56822;52.516;4.708;2023-01-10T00:02:09;37.95;32.08;47.05;;
69616;Laerm;56822;52.516;4.708;2023-01-10T00:02:19;43.08;34.22;57.05;;
69616;Laerm;56822;52.516;4.708;2023-01-10T00:02:29;43.28;33.36;58.11;;
69616;Laerm;56822;52.516;4.708;2023-01-10T00:02:40;40.21;33.31;51.29;;
69616;Laerm;56822;52.516;4.708;2023-01-10T00:02:50;43.31;32.67;57.41;;
69616;Laerm;56822;52.516;4.708;2023-01-10T00:03:01;44.79;34.38;60.96;;
69616;Laerm;56822;52.516;4.708;2023-01-10T00:03:11;36.63;32.16;48.07;;
69616;Laerm;56822;52.516;4.708;2023-01-10T00:03:22;37.38;31.35;48.24;;
69616;Laerm;56822;52.516;4.708;2023-01-10T00:03:32;33.99;31.13;43.47;;
69616;Laerm;56822;52.516;4.708;2023-01-10T00:03:42;43.07;31.76;59.30;;
69616;Laerm;56822;52.516;4.708;2023-01-10T00:03:53;36.91;32.28;43.86;;
69616;Laerm;56822;52.516;4.708;2023-01-10T00:04:03;35.70;32.56;46.33;;
69616;Laerm;56822;52.516;4.708;2023-01-10T00:04:13;38.75;33.55;54.43;;
69616;Laerm;56822;52.516;4.708;2023-01-10T00:04:24;33.55;31.44;36.60;;
69616;Laerm;56822;52.516;4.708;2023-01-10T00:04:38;36.19;32.60;45.99;;
69616;Laerm;56822;52.516;4.708;2023-01-10T00:04:49;44.02;32.84;61.57;;
69616;Laerm;56822;52.516;4.708;2023-01-10T00:04:59;42.67;33.47;57.91;;
69616;Laerm;56822;52.516;4.708;2023-01-10T00:05:09;40.01;33.43;57.92;;
69616;Laerm;56822;52.516;4.708;2023-01-10T00:05:19;35.58;32.88;39.33;;
69616;Laerm;56822;52.516;4.708;2023-01-10T00:05:30;41.67;34.01;53.65;;
69616;Laerm;56822;52.516;4.708;2023-01-10T00:05:41;40.93;34.91;53.75;;
69616;Laerm;56822;52.516;4.708;2023-01-10T00:05:51;35.22;32.66;39.66;;
69616;Laerm;56822;52.516;4.708;2023-01-10T00:06:01;35.34;32.71;44.56;;
69616;Laerm;56822;52.516;4.708;2023-01-10T00:06:11;36.22;32.42;48.55;;
69616;Laerm;56822;52.516;4.708;2023-01-10T00:06:22;34.46;31.49;38.11;;
69616;Laerm;56822;52.516;4.708;2023-01-10T00:06:32;33.48;31.71;35.62;;
69616;Laerm;56822;52.516;4.708;2023-01-10T00:06:42;39.23;33.41;46.47;;
69616;Laerm;56822;52.516;4.708;2023-01-10T00:06:52;36.12;33.37;44.44;;
69616;Laerm;56822;52.516;4.708;2023-01-10T00:07:03;36.80;32.74;44.34;;
69616;Laerm;56822;52.516;4.708;2023-01-10T00:07:13;38.88;32.76;49.07;;
69616;Laerm;56822;52.516;4.708;2023-01-10T00:07:23;38.20;32.86;46.23;;
69616;Laerm;56822;52.516;4.708;2023-01-10T00:07:33;33.54;31.95;36.52;;
69616;Laerm;56822;52.516;4.708;2023-01-10T00:07:45;33.63;31.75;36.07;;
69616;Laerm;56822;52.516;4.708;2023-01-10T00:07:55;34.59;31.63;41.27;;
69616;Laerm;56822;52.516;4.708;2023-01-10T00:08:09;35.70;31.44;44.38;;
69616;Laerm;56822;52.516;4.708;2023-01-10T00:08:23;35.47;31.38;45.33;;
69616;Laerm;56822;52.516;4.708;2023-01-10T00:08:33;31.58;30.12;33.33;;
69616;Laerm;56822;52.516;4.708;2023-01-10T00:08:43;33.85;30.36;48.20;;
69616;Laerm;56822;52.516;4.708;2023-01-10T00:08:53;31.80;29.92;33.69;;
69616;Laerm;56822;52.516;4.708;2023-01-10T00:09:06;32.19;30.45;36.94;;
69616;Laerm;56822;52.516;4.708;2023-01-10T00:09:16;35.27;31.11;45.95;;
69616;Laerm;56822;52.516;4.708;2023-01-10T00:09:27;34.09;31.51;40.67;;
69616;Laerm;56822;52.516;4.708;2023-01-10T00:09:37;35.10;31.14;41.39;;
69616;Laerm;56822;52.516;4.708;2023-01-10T00:09:47;34.59;31.79;41.13;;
69616;Laerm;56822;52.516;4.708;2023-01-10T00:09:57;35.65;32.53;42.12;;
69616;Laerm;56822;52.516;4.708;2023-01-10T00:10:08;35.05;31.86;45.50;;
69616;Laerm;56822;52.516;4.708;2023-01-10T00:10:18;33.53;31.29;38.75;;
69616;Laerm;56822;52.516;4.708;2023-01-10T00:10:29;35.52;32.43;46.06;;
69616;Laerm;56822;52.516;4.708;2023-01-10T00:10:39;34.71;31.16;45.60;;
69616;Laerm;56822;52.516;4.708;2023-01-10T00:10:50;34.07;32.14;40.24;;
69616;Laerm;56822;52.516;4.708;2023-01-10T00:11:00;33.77;32.10;35.97;;
69616;Laerm;56822;52.516;4.708;2023-01-10T00:11:30;33.62;30.59;42.48;;
69616;Laerm;56822;52.516;4.708;2023-01-10T00:12:03;33.77;30.97;48.44;;
69616;Laerm;56822;52.516;4.708;2023-01-10T00:12:32;33.83;29.91;44.70;;
69616;Laerm;56822;52.516;4.708;2023-01-10T00:13:01;33.69;30.84;44.88;;
69616;Laerm;56822;52.516;4.708;2023-01-10T00:13:30;45.95;31.03;65.22;;
69616;Laerm;56822;52.516;4.708;2023-01-10T00:13:41;45.65;36.85;54.08;;
69616;Laerm;56822;52.516;4.708;2023-01-10T00:13:52;39.03;35.37;49.18;;
69616;Laerm;56822;52.516;4.708;2023-01-10T00:14:02;35.60;33.17;42.43;;
69616;Laerm;56822;52.516;4.708;2023-01-10T00:14:13;35.63;32.41;43.42;;
69616;Laerm;56822;52.516;4.708;2023-01-10T00:14:25;40.74;32.89;53.73;;
69616;Laerm;56822;52.516;4.708;2023-01-10T00:14:35;42.26;31.86;57.12;;
69616;Laerm;56822;52.516;4.708;2023-01-10T00:14:45;39.51;32.61;52.15;;
69616;Laerm;56822;52.516;4.708;2023-01-10T00:14:56;36.22;32.80;47.76;;
69616;Laerm;56822;52.516;4.708;2023-01-10T00:15:06;39.45;32.98;56.74;;
69616;Laerm;56822;52.516;4.708;2023-01-10T00:15:16;36.10;32.04;46.20;;
69616;Laerm;56822;52.516;4.708;2023-01-10T00:15:27;35.31;30.34;49.05;;
69616;Laerm;56822;52.516;4.708;2023-01-10T00:15:37;32.67;30.53;40.67;;
69616;Laerm;56822;52.516;4.708;2023-01-10T00:15:48;35.69;31.27;45.26;;
69616;Laerm;56822;52.516;4.708;2023-01-10T00:15:58;36.59;32.23;46.84;;
69616;Laerm;56822;52.516;4.708;2023-01-10T00:16:17;36.74;31.20;49.17;;
69616;Laerm;56822;52.516;4.708;2023-01-10T00:16:27;32.34;29.79;35.25;;
69616;Laerm;56822;52.516;4.708;2023-01-10T00:16:37;31.54;29.92;37.19;;
69616;Laerm;56822;52.516;4.708;2023-01-10T00:16:48;35.14;30.43;46.61;;
69616;Laerm;56822;52.516;4.708;2023-01-10T00:16:58;42.63;33.94;59.97;;
69616;Laerm;56822;52.516;4.708;2023-01-10T00:17:09;32.60;30.41;34.93;;
69616;Laerm;56822;52.516;4.708;2023-01-10T00:17:19;36.79;31.17;43.34;;
69616;Laerm;56822;52.516;4.708;2023-01-10T00:17:30;35.80;31.59;47.79;;
69616;Laerm;56822;52.516;4.708;2023-01-10T00:17:41;34.10;32.41;37.09;;
69616;Laerm;56822;52.516;4.708;2023-01-10T00:17:51;46.67;32.43;56.52;;
69616;Laerm;56822;52.516;4.708;2023-01-10T00:18:02;33.57;31.01;46.72;;
69616;Laerm;56822;52.516;4.708;2023-01-10T00:18:12;33.00;31.14;37.44;;
69616;Laerm;56822;52.516;4.708;2023-01-10T00:18:22;34.57;31.51;42.16;;
69616;Laerm;56822;52.516;4.708;2023-01-10T00:18:32;35.17;32.92;38.64;;
69616;Laerm;56822;52.516;4.708;2023-01-10T00:18:43;35.48;32.17;45.97;;
69616;Laerm;56822;52.516;4.708;2023-01-10T00:18:53;32.81;30.81;41.58;;
69616;Laerm;56822;52.516;4.708;2023-01-10T00:19:04;32.87;30.61;35.09;;
69616;Laerm;56822;52.516;4.708;2023-01-10T00:19:14;34.50;31.68;40.10;;
69616;Laerm;56822;52.516;4.708;2023-01-10T00:19:25;35.46;32.70;43.72;;
69616;Laerm;56822;52.516;4.708;2023-01-10T00:19:35;34.81;32.33;38.84;;
69616;Laerm;56822;52.516;4.708;2023-01-10T00:19:45;34.61;32.77;38.09;;
69616;Laerm;56822;52.516;4.708;2023-01-10T00:19:55;34.54;30.48;40.22;;
69616;Laerm;56822;52.516;4.708;2023-01-10T00:20:06;33.39;30.38;36.30;;
69616;Laerm;56822;52.516;4.708;2023-01-10T00:20:16;36.31;33.77;39.49;;
69616;Laerm;56822;52.516;4.708;2023-01-10T00:20:27;37.92;34.14;52.02;;
69616;Laerm;56822;52.516;4.708;2023-01-10T00:20:37;36.58;32.82;42.43;;
69616;Laerm;56822;52.516;4.708;2023-01-10T00:20:47;34.75;32.19;40.16;;
69616;Laerm;56822;52.516;4.708;2023-01-10T00:21:00;33.82;32.00;39.91;;
69616;Laerm;56822;52.516;4.708;2023-01-10T00:21:10;34.73;32.48;39.27;;
69616;Laerm;56822;52.516;4.708;2023-01-10T00:21:21;34.03;31.64;40.33;;
69616;Laerm;56822;52.516;4.708;2023-01-10T00:21:31;34.20;31.31;43.10;;
69616;Laerm;56822;52.516;4.708;2023-01-10T00:21:41;32.27;30.69;37.18;;
69616;Laerm;56822;52.516;4.708;2023-01-10T00:21:51;33.88;30.21;43.25;;
69616;Laerm;56822;52.516;4.708;2023-01-10T00:22:02;34.54;30.37;45.94;;
69616;Laerm;56822;52.516;4.708;2023-01-10T00:22:14;31.97;30.18;38.49;;
69616;Laerm;56822;52.516;4.708;2023-01-10T00:22:28;31.52;29.89;36.32;;
69616;Laerm;56822;52.516;4.708;2023-01-10T00:22:38;31.84;29.78;42.88;;
69616;Laerm;56822;52.516;4.708;2023-01-10T00:22:48;34.06;30.94;41.72;;
69616;Laerm;56822;52.516;4.708;2023-01-10T00:22:59;32.88;30.68;37.14;;
69616;Laerm;56822;52.516;4.708;2023-01-10T00:23:10;36.27;31.29;48.98;;
69616;Laerm;56822;52.516;4.708;2023-01-10T00:23:20;39.55;31.41;50.46;;
69616;Laerm;56822;52.516;4.708;2023-01-10T00:23:31;39.61;33.16;52.96;;
69616;Laerm;56822;52.516;4.708;2023-01-10T00:23:42;36.54;32.63;42.29;;
69616;Laerm;56822;52.516;4.708;2023-01-10T00:23:53;36.26;32.92;42.51;;
69616;Laerm;56822;52.516;4.708;2023-01-10T00:24:03;39.49;32.57;48.57;;
69616;Laerm;56822;52.516;4.708;2023-01-10T00:24:26;35.84;31.17;52.98;;
69616;Laerm;56822;52.516;4.708;2023-01-10T00:24:37;42.91;31.38;55.89;;
69616;Laerm;56822;52.516;4.708;2023-01-10T00:24:48;35.74;30.46;49.64;;
69616;Laerm;56822;52.516;4.708;2023-01-10T00:24:58;34.11;31.34;43.11;;
69616;Laerm;56822;52.516;4.708;2023-01-10T00:25:08;36.46;32.91;43.48;;
69616;Laerm;56822;52.516;4.708;2023-01-10T00:25:18;35.25;31.74;42.90;;
69616;Laerm;56822;52.516;4.708;2023-01-10T00:25:30;50.25;32.09;64.57;;
69616;Laerm;56822;52.516;4.708;2023-01-10T00:25:42;41.94;35.32;57.15;;
69616;Laerm;56822;52.516;4.708;2023-01-10T00:25:52;37.80;34.76;43.50;;
69616;Laerm;56822;52.516;4.708;2023-01-10T00:26:02;35.37;31.97;45.10;;
69616;Laerm;56822;52.516;4.708;2023-01-10T00:26:13;34.09;32.15;36.01;;
69616;Laerm;56822;52.516;4.708;2023-01-10T00:26:23;36.13;32.76;45.54;;
69616;Laerm;56822;52.516;4.708;2023-01-10T00:26:33;36.68;32.52;48.08;;
69616;Laerm;56822;52.516;4.708;2023-01-10T00:26:44;37.13;33.60;46.31;;
69616;Laerm;56822;52.516;4.708;2023-01-10T00:27:03;39.43;32.40;56.99;;
69616;Laerm;56822;52.516;4.708;2023-01-10T00:27:14;36.19;32.27;47.82;;
69616;Laerm;56822;52.516;4.708;2023-01-10T00:27:29;33.47;30.32;38.80;;
69616;Laerm;56822;52.516;4.708;2023-01-10T00:27:40;32.62;30.40;40.68;;
69616;Laerm;56822;52.516;4.708;2023-01-10T00:27:52;32.51;29.58;43.74;;
69616;Laerm;56822;52.516;4.708;2023-01-10T00:28:19;33.99;30.08;50.22;;
69616;Laerm;56822;52.516;4.708;2023-01-10T00:28:30;33.65;31.95;35.60;;
69616;Laerm;56822;52.516;4.708;2023-01-10T00:28:43;36.35;31.43;49.28;;
69616;Laerm;56822;52.516;4.708;2023-01-10T00:28:54;36.68;32.47;46.14;;
69616;Laerm;56822;52.516;4.708;2023-01-10T00:29:04;34.99;32.04;42.73;;
69616;Laerm;56822;52.516;4.708;2023-01-10T00:29:21;33.61;31.49;37.80;;
69616;Laerm;56822;52.516;4.708;2023-01-10T00:29:31;43.83;32.16;57.96;;
69616;Laerm;56822;52.516;4.708;2023-01-10T00:29:43;36.77;31.43;48.04;;
69616;Laerm;56822;52.516;4.708;2023-01-10T00:29:54;31.71;29.98;41.00;;
69616;Laerm;56822;52.516;4.708;2023-01-10T00:30:05;32.36;30.14;39.22;;
69616;Laerm;56822;52.516;4.708;2023-01-10T00:30:22;32.58;30.17;36.83;;
69616;Laerm;56822;52.516;4.708;2023-01-10T00:30:33;36.40;31.83;43.66;;
69616;Laerm;56822;52.516;4.708;2023-01-10T00:30:50;39.45;34.96;46.66;;
69616;Laerm;56822;52.516;4.708;2023-01-10T00:31:04;33.88;31.01;38.46;;
69616;Laerm;56822;52.516;4.708;2023-01-10T00:31:15;32.67;30.14;38.11;;
69616;Laerm;56822;52.516;4.708;2023-01-10T00:31:26;36.02;29.93;48.18;;
69616;Laerm;56822;52.516;4.708;2023-01-10T00:31:36;32.42;30.70;36.14;;
69616;Laerm;56822;52.516;4.708;2023-01-10T00:31:46;34.08;31.99;39.32;;
69616;Laerm;56822;52.516;4.708;2023-01-10T00:31:57;34.25;32.45;39.51;;
69616;Laerm;56822;52.516;4.708;2023-01-10T00:32:07;34.42;32.77;37.11;;
69616;Laerm;56822;52.516;4.708;2023-01-10T00:32:18;34.74;32.51;37.64;;
69616;Laerm;56822;52.516;4.708;2023-01-10T00:32:28;34.86;31.49;42.10;;
69616;Laerm;56822;52.516;4.708;2023-01-10T00:32:39;32.28;30.25;36.94;;
69616;Laerm;56822;52.516;4.708;2023-01-10T00:32:50;39.71;31.65;50.38;;
69616;Laerm;56822;52.516;4.708;2023-01-10T00:33:00;39.57;32.91;48.45;;
69616;Laerm;56822;52.516;4.708;2023-01-10T00:33:11;36.63;32.83;42.94;;
69616;Laerm;56822;52.516;4.708;2023-01-10T00:33:27;41.35;34.69;51.53;;
69616;Laerm;56822;52.516;4.708;2023-01-10T00:33:40;41.50;34.47;56.25;;
69616;Laerm;56822;52.516;4.708;2023-01-10T00:33:51;35.60;33.06;42.51;;
69616;Laerm;56822;52.516;4.708;2023-01-10T00:34:01;38.31;32.19;45.09;;
69616;Laerm;56822;52.516;4.708;2023-01-10T00:34:11;38.93;33.63;44.61;;
69616;Laerm;56822;52.516;4.708;2023-01-10T00:34:22;41.80;34.86;52.33;;
69616;Laerm;56822;52.516;4.708;2023-01-10T00:34:32;42.63;33.30;57.39;;
69616;Laerm;56822;52.516;4.708;2023-01-10T00:34:44;37.30;34.00;42.21;;
69616;Laerm;56822;52.516;4.708;2023-01-10T00:34:54;40.87;36.02;57.13;;
69616;Laerm;56822;52.516;4.708;2023-01-10T00:35:04;53.94;36.82;66.18;;
69616;Laerm;56822;52.516;4.708;2023-01-10T00:35:15;51.21;39.10;65.62;;
69616;Laerm;56822;52.516;4.708;2023-01-10T00:35:26;40.46;33.76;55.26;;
69616;Laerm;56822;52.516;4.708;2023-01-10T00:35:36;34.20;31.29;45.37;;
69616;Laerm;56822;52.516;4.708;2023-01-10T00:35:46;34.65;32.50;37.61;;
69616;Laerm;56822;52.516;4.708;2023-01-10T00:35:57;35.86;32.89;46.27;;
69616;Laerm;56822;52.516;4.708;2023-01-10T00:36:08;37.10;32.49;50.79;;
69616;Laerm;56822;52.516;4.708;2023-01-10T00:36:19;34.59;31.73;44.63;;
69616;Laerm;56822;52.516;4.708;2023-01-10T00:36:29;33.24;31.30;36.46;;
69616;Laerm;56822;52.516;4.708;2023-01-10T00:36:39;36.46;33.58;41.68;;
69616;Laerm;56822;52.516;4.708;2023-01-10T00:36:51;35.50;32.27;47.45;;
69616;Laerm;56822;52.516;4.708;2023-01-10T00:37:01;36.45;31.30;52.92;;
69616;Laerm;56822;52.516;4.708;2023-01-10T00:37:12;33.03;31.05;34.85;;
69616;Laerm;56822;52.516;4.708;2023-01-10T00:37:22;34.03;30.25;43.70;;
69616;Laerm;56822;52.516;4.708;2023-01-10T00:37:32;31.17;28.82;37.11;;
69616;Laerm;56822;52.516;4.708;2023-01-10T00:37:43;32.93;30.24;42.82;;
69616;Laerm;56822;52.516;4.708;2023-01-10T00:37:53;32.50;29.54;41.34;;
69616;Laerm;56822;52.516;4.708;2023-01-10T00:38:10;30.87;28.70;34.25;;
69616;Laerm;56822;52.516;4.708;2023-01-10T00:38:20;30.74;29.03;36.53;;
69616;Laerm;56822;52.516;4.708;2023-01-10T00:38:30;31.11;29.43;35.07;;
69616;Laerm;56822;52.516;4.708;2023-01-10T00:38:42;30.65;28.78;36.07;;
69616;Laerm;56822;52.516;4.708;2023-01-10T00:38:52;32.24;29.86;41.32;;
69616;Laerm;56822;52.516;4.708;2023-01-10T00:39:03;38.54;30.56;54.24;;
69616;Laerm;56822;52.516;4.708;2023-01-10T00:39:14;32.64;29.71;41.40;;
69616;Laerm;56822;52.516;4.708;2023-01-10T00:39:24;31.33;30.11;34.39;;
69616;Laerm;56822;52.516;4.708;2023-01-10T00:39:36;31.56;29.85;36.37;;
69616;Laerm;56822;52.516;4.708;2023-01-10T00:39:46;33.04;30.77;39.07;;
69616;Laerm;56822;52.516;4.708;2023-01-10T00:39:57;34.25;31.00;38.26;;
69616;Laerm;56822;52.516;4.708;2023-01-10T00:40:09;31.50;29.69;38.02;;
69616;Laerm;56822;52.516;4.708;2023-01-10T00:40:19;33.11;29.66;42.64;;
69616;Laerm;56822;52.516;4.708;2023-01-10T00:40:30;33.40;30.51;41.35;;
69616;Laerm;56822;52.516;4.708;2023-01-10T00:40:41;31.67;29.28;41.49;;
69616;Laerm;56822;52.516;4.708;2023-01-10T00:40:51;31.10;29.49;32.79;;
69616;Laerm;56822;52.516;4.708;2023-01-10T00:41:02;31.96;29.59;34.58;;
69616;Laerm;56822;52.516;4.708;2023-01-10T00:41:12;32.50;30.50;34.59;;
69616;Laerm;56822;52.516;4.708;2023-01-10T00:41:41;34.06;30.36;46.97;;
69616;Laerm;56822;52.516;4.708;2023-01-10T00:42:10;35.12;30.41;49.24;;
69616;Laerm;56822;52.516;4.708;2023-01-10T00:42:39;34.43;31.80;40.12;;
69616;Laerm;56822;52.516;4.708;2023-01-10T00:43:09;37.82;30.28;46.93;;
69616;Laerm;56822;52.516;4.708;2023-01-10T00:43:38;31.69;29.97;39.33;;
69616;Laerm;56822;52.516;4.708;2023-01-10T00:44:06;31.35;29.57;33.61;;
69616;Laerm;56822;52.516;4.708;2023-01-10T00:44:17;31.77;30.48;33.48;;
69616;Laerm;56822;52.516;4.708;2023-01-10T00:44:28;44.16;30.90;56.16;;
69616;Laerm;56822;52.516;4.708;2023-01-10T00:44:38;41.04;35.94;52.23;;
69616;Laerm;56822;52.516;4.708;2023-01-10T00:44:48;38.06;31.69;47.08;;
69616;Laerm;56822;52.516;4.708;2023-01-10T00:44:59;35.23;30.58;45.20;;
69616;Laerm;56822;52.516;4.708;2023-01-10T00:45:09;35.04;30.39;47.02;;
69616;Laerm;56822;52.516;4.708;2023-01-10T00:45:21;33.06;30.96;35.60;;
69616;Laerm;56822;52.516;4.708;2023-01-10T00:45:33;33.26;30.19;43.99;;
69616;Laerm;56822;52.516;4.708;2023-01-10T00:45:44;39.05;32.18;51.03;;
69616;Laerm;56822;52.516;4.708;2023-01-10T00:45:54;36.96;32.65;50.70;;
69616;Laerm;56822;52.516;4.708;2023-01-10T00:46:06;35.50;33.14;39.20;;
69616;Laerm;56822;52.516;4.708;2023-01-10T00:46:17;37.76;33.40;48.86;;
69616;Laerm;56822;52.516;4.708;2023-01-10T00:46:27;36.05;32.72;43.93;;
69616;Laerm;56822;52.516;4.708;2023-01-10T00:46:37;37.64;33.76;49.85;;
69616;Laerm;56822;52.516;4.708;2023-01-10T00:46:48;35.74;33.73;40.80;;
69616;Laerm;56822;52.516;4.708;2023-01-10T00:46:58;35.82;33.24;39.92;;
69616;Laerm;56822;52.516;4.708;2023-01-10T00:47:08;36.97;32.93;48.27;;
69616;Laerm;56822;52.516;4.708;2023-01-10T00:47:18;34.97;32.03;44.03;;
69616;Laerm;56822;52.516;4.708;2023-01-10T00:47:29;35.07;32.18;43.68;;
69616;Laerm;56822;52.516;4.708;2023-01-10T00:47:39;34.11;31.47;46.37;;
69616;Laerm;56822;52.516;4.708;2023-01-10T00:47:50;34.35;31.26;42.95;;
69616;Laerm;56822;52.516;4.708;2023-01-10T00:48:00;35.70;31.20;49.07;;
69616;Laerm;56822;52.516;4.708;2023-01-10T00:48:13;33.79;31.29;39.95;;
69616;Laerm;56822;52.516;4.708;2023-01-10T00:48:24;37.45;31.96;43.85;;
69616;Laerm;56822;52.516;4.708;2023-01-10T00:48:34;33.23;31.02;38.14;;
69616;Laerm;56822;52.516;4.708;2023-01-10T00:48:44;36.10;30.82;50.28;;
69616;Laerm;56822;52.516;4.708;2023-01-10T00:48:55;35.35;31.54;42.30;;
69616;Laerm;56822;52.516;4.708;2023-01-10T00:49:06;37.95;32.74;48.98;;
69616;Laerm;56822;52.516;4.708;2023-01-10T00:49:17;37.77;32.85;41.75;;
69616;Laerm;56822;52.516;4.708;2023-01-10T00:49:27;36.92;32.82;50.07;;
69616;Laerm;56822;52.516;4.708;2023-01-10T00:49:38;35.99;32.46;45.07;;
69616;Laerm;56822;52.516;4.708;2023-01-10T00:49:49;46.91;33.77;62.19;;
69616;Laerm;56822;52.516;4.708;2023-01-10T00:49:59;35.11;31.88;43.79;;
69616;Laerm;56822;52.516;4.708;2023-01-10T00:50:11;33.89;31.50;39.04;;
69616;Laerm;56822;52.516;4.708;2023-01-10T00:50:21;35.62;33.90;40.32;;
69616;Laerm;56822;52.516;4.708;2023-01-10T00:50:31;36.27;33.09;43.28;;
69616;Laerm;56822;52.516;4.708;2023-01-10T00:50:42;35.46;32.51;41.45;;
69616;Laerm;56822;52.516;4.708;2023-01-10T00:50:52;35.00;32.34;41.23;;
69616;Laerm;56822;52.516;4.708;2023-01-10T00:51:02;37.76;33.34;49.69;;
69616;Laerm;56822;52.516;4.708;2023-01-10T00:51:13;35.86;32.93;45.50;;
69616;Laerm;56822;52.516;4.708;2023-01-10T00:51:23;36.09;31.95;47.64;;
69616;Laerm;56822;52.516;4.708;2023-01-10T00:51:33;38.30;33.01;50.99;;
69616;Laerm;56822;52.516;4.708;2023-01-10T00:51:44;34.06;31.16;42.65;;
69616;Laerm;56822;52.516;4.708;2023-01-10T00:51:54;32.44;30.93;37.89;;
69616;Laerm;56822;52.516;4.708;2023-01-10T00:52:08;34.06;30.53;45.47;;
69616;Laerm;56822;52.516;4.708;2023-01-10T00:52:18;36.31;32.70;43.41;;
69616;Laerm;56822;52.516;4.708;2023-01-10T00:52:29;38.28;32.03;56.33;;
69616;Laerm;56822;52.516;4.708;2023-01-10T00:52:39;41.65;33.37;54.64;;
69616;Laerm;56822;52.516;4.708;2023-01-10T00:52:49;47.72;32.47;62.54;;
69616;Laerm;56822;52.516;4.708;2023-01-10T00:53:00;38.26;31.22;52.66;;
69616;Laerm;56822;52.516;4.708;2023-01-10T00:53:10;33.18;31.67;37.23;;
69616;Laerm;56822;52.516;4.708;2023-01-10T00:53:21;34.79;30.68;45.73;;
69616;Laerm;56822;52.516;4.708;2023-01-10T00:53:31;40.06;32.86;55.49;;
69616;Laerm;56822;52.516;4.708;2023-01-10T00:53:41;33.79;31.92;37.16;;
69616;Laerm;56822;52.516;4.708;2023-01-10T00:53:52;33.77;31.81;35.41;;
69616;Laerm;56822;52.516;4.708;2023-01-10T00:54:02;35.37;31.60;47.03;;
69616;Laerm;56822;52.516;4.708;2023-01-10T00:54:13;34.56;31.25;45.30;;
69616;Laerm;56822;52.516;4.708;2023-01-10T00:54:23;32.59;30.66;35.12;;
69616;Laerm;56822;52.516;4.708;2023-01-10T00:54:34;33.69;29.72;45.50;;
69616;Laerm;56822;52.516;4.708;2023-01-10T00:54:44;35.60;32.61;44.71;;
69616;Laerm;56822;52.516;4.708;2023-01-10T00:54:54;32.57;30.20;36.50;;
69616;Laerm;56822;52.516;4.708;2023-01-10T00:55:05;33.98;30.77;42.98;;
69616;Laerm;56822;52.516;4.708;2023-01-10T00:55:15;36.97;31.73;43.48;;
69616;Laerm;56822;52.516;4.708;2023-01-10T00:55:25;38.65;34.58;46.39;;
69616;Laerm;56822;52.516;4.708;2023-01-10T00:55:36;37.10;31.75;49.82;;
69616;Laerm;56822;52.516;4.708;2023-01-10T00:55:46;34.51;32.12;36.94;;
69616;Laerm;56822;52.516;4.708;2023-01-10T00:55:56;34.04;30.74;50.23;;
69616;Laerm;56822;52.516;4.708;2023-01-10T00:56:06;33.48;30.65;38.69;;
69616;Laerm;56822;52.516;4.708;2023-01-10T00:56:17;33.54;31.62;36.70;;
69616;Laerm;56822;52.516;4.708;2023-01-10T00:56:27;36.16;31.83;47.89;;
69616;Laerm;56822;52.516;4.708;2023-01-10T00:56:37;50.53;35.35;64.96;;
69616;Laerm;56822;52.516;4.708;2023-01-10T00:56:48;35.28;32.93;39.21;;
69616;Laerm;56822;52.516;4.708;2023-01-10T00:56:58;34.17;31.62;37.50;;
69616;Laerm;56822;52.516;4.708;2023-01-10T00:57:08;36.34;33.53;43.41;;
69616;Laerm;56822;52.516;4.708;2023-01-10T00:57:18;34.97;32.06;43.69;;
69616;Laerm;56822;52.516;4.708;2023-01-10T00:57:29;45.96;33.66;69.82;;
69616;Laerm;56822;52.516;4.708;2023-01-10T00:57:39;38.89;35.56;47.64;;
69616;Laerm;56822;52.516;4.708;2023-01-10T00:57:49;38.89;36.43;43.60;;
69616;Laerm;56822;52.516;4.708;2023-01-10T00:58:00;39.24;36.40;48.81;;
69616;Laerm;56822;52.516;4.708;2023-01-10T00:58:11;39.75;35.47;50.70;;
69616;Laerm;56822;52.516;4.708;2023-01-10T00:58:22;42.30;38.82;54.98;;
69616;Laerm;56822;52.516;4.708;2023-01-10T00:58:32;45.09;41.25;55.04;;
69616;Laerm;56822;52.516;4.708;2023-01-10T00:58:43;43.03;36.62;49.68;;
69616;Laerm;56822;52.516;4.708;2023-01-10T00:58:54;38.08;33.76;51.06;;
69616;Laerm;56822;52.516;4.708;2023-01-10T00:59:04;36.61;33.30;46.51;;
69616;Laerm;56822;52.516;4.708;2023-01-10T00:59:15;33.59;30.88;40.77;;
69616;Laerm;56822;52.516;4.708;2023-01-10T00:59:25;34.25;30.72;46.79;;
69616;Laerm;56822;52.516;4.708;2023-01-10T00:59:35;35.07;31.57;40.80;;
69616;Laerm;56822;52.516;4.708;2023-01-10T00:59:46;36.53;32.72;42.51;;
69616;Laerm;56822;52.516;4.708;2023-01-10T00:59:57;43.91;34.80;57.00;;
69616;Laerm;56822;52.516;4.708;2023-01-10T01:00:07;41.05;34.43;52.71;;
69616;Laerm;56822;52.516;4.708;2023-01-10T01:00:19;37.66;31.51;50.02;;
69616;Laerm;56822;52.516;4.708;2023-01-10T01:00:29;35.65;32.17;47.08;;
69616;Laerm;56822;52.516;4.708;2023-01-10T01:00:40;36.56;31.57;50.15;;
69616;Laerm;56822;52.516;4.708;2023-01-10T01:00:50;35.36;32.47;46.16;;
69616;Laerm;56822;52.516;4.708;2023-01-10T01:01:01;46.07;31.08;60.25;;
69616;Laerm;56822;52.516;4.708;2023-01-10T01:01:11;46.25;38.96;56.69;;
69616;Laerm;56822;52.516;4.708;2023-01-10T01:01:21;38.96;33.42;44.89;;
69616;Laerm;56822;52.516;4.708;2023-01-10T01:01:32;39.64;32.67;48.93;;
69616;Laerm;56822;52.516;4.708;2023-01-10T01:01:42;35.78;32.43;48.78;;
69616;Laerm;56822;52.516;4.708;2023-01-10T01:01:52;35.27;31.63;41.00;;
69616;Laerm;56822;52.516;4.708;2023-01-10T01:02:03;36.85;32.71;47.28;;
69616;Laerm;56822;52.516;4.708;2023-01-10T01:02:13;34.11;31.18;45.40;;
69616;Laerm;56822;52.516;4.708;2023-01-10T01:02:24;34.70;32.52;37.63;;
69616;Laerm;56822;52.516;4.708;2023-01-10T01:02:34;36.51;31.50;51.57;;
69616;Laerm;56822;52.516;4.708;2023-01-10T01:02:44;38.49;32.40;54.20;;
69616;Laerm;56822;52.516;4.708;2023-01-10T01:02:55;38.77;33.64;52.51;;
69616;Laerm;56822;52.516;4.708;2023-01-10T01:03:05;33.28;30.93;40.29;;
69616;Laerm;56822;52.516;4.708;2023-01-10T01:03:17;33.68;31.09;41.97;;
69616;Laerm;56822;52.516;4.708;2023-01-10T01:03:28;35.14;32.27;40.19;;
69616;Laerm;56822;52.516;4.708;2023-01-10T01:03:38;33.34;31.17;35.61;;
69616;Laerm;56822;52.516;4.708;2023-01-10T01:03:48;34.21;30.31;41.60;;
69616;Laerm;56822;52.516;4.708;2023-01-10T01:03:58;31.77;29.93;37.25;;
69616;Laerm;56822;52.516;4.708;2023-01-10T01:04:09;33.36;30.67;39.48;;
69616;Laerm;56822;52.516;4.708;2023-01-10T01:04:19;33.25;29.95;40.73;;